createdAt,value
2024-02-02T00:00:51.757Z,96299.00
2024-02-02T00:01:51.774Z,96300.00
2024-02-02T00:02:51.979Z,96302.00
2024-02-02T00:03:52.060Z,96301.00
2024-02-02T00:04:51.885Z,96294.00
2024-02-02T00:05:51.974Z,96292.00
2024-02-02T00:06:52.008Z,96291.00
2024-02-02T00:07:52.021Z,96291.00
2024-02-02T00:08:52.072Z,96288.00
2024-02-02T00:09:52.080Z,96288.00
2024-02-02T00:10:52.133Z,96285.00
2024-02-02T00:11:52.988Z,96285.00
2024-02-02T00:12:52.218Z,96286.00
2024-02-02T00:13:52.250Z,96284.00
2024-02-02T00:14:52.341Z,96285.00
2024-02-02T00:15:52.407Z,96286.00
2024-02-02T00:16:52.468Z,96287.00
2024-02-02T00:17:52.558Z,96288.00
2024-02-02T00:18:52.552Z,96292.00
2024-02-02T00:19:52.594Z,96293.00
2024-02-02T00:20:52.611Z,96295.00
2024-02-02T00:21:52.966Z,96294.00
2024-02-02T00:22:53.964Z,96293.00
2024-02-02T00:23:52.682Z,96290.00
2024-02-02T00:24:52.625Z,96291.00
2024-02-02T00:25:52.630Z,96291.00
2024-02-02T00:26:52.687Z,96290.00
2024-02-02T00:27:52.652Z,96291.00
2024-02-02T00:28:52.683Z,96291.00
2024-02-02T00:29:52.657Z,96291.00
2024-02-02T00:30:52.682Z,96292.00
2024-02-02T00:31:53.008Z,96292.00
2024-02-02T00:32:52.791Z,96294.00
2024-02-02T00:33:52.773Z,96295.00
2024-02-02T00:34:52.805Z,96295.00
2024-02-02T00:35:52.729Z,96294.00
2024-02-02T00:36:52.687Z,96299.00
2024-02-02T00:37:52.656Z,96302.00
2024-02-02T00:38:52.691Z,96304.00
2024-02-02T00:39:52.683Z,96309.00
2024-02-02T00:40:52.714Z,96311.00
2024-02-02T00:41:52.714Z,96312.00
2024-02-02T00:42:52.696Z,96313.00
2024-02-02T00:43:52.680Z,96314.00
2024-02-02T00:44:52.688Z,96315.00
2024-02-02T00:45:52.695Z,96319.00
2024-02-02T00:46:52.699Z,96319.00
2024-02-02T00:47:52.779Z,96318.00
2024-02-02T00:48:52.801Z,96316.00
2024-02-02T00:49:52.713Z,96317.00
2024-02-02T00:50:52.726Z,96315.00
2024-02-02T00:51:52.709Z,96316.00
2024-02-02T00:52:52.704Z,96314.00
2024-02-02T00:53:52.742Z,96317.00
2024-02-02T00:54:52.683Z,96319.00
2024-02-02T00:55:52.697Z,96319.00
2024-02-02T00:56:52.844Z,96319.00
2024-02-02T00:57:52.767Z,96319.00
2024-02-02T00:58:52.740Z,96321.00
2024-02-02T00:59:52.744Z,96323.00
2024-02-02T01:00:52.749Z,96326.00
2024-02-02T01:01:52.704Z,96327.00
2024-02-02T01:02:52.758Z,96324.00
2024-02-02T01:03:52.763Z,96319.00
2024-02-02T01:04:52.676Z,96317.00
2024-02-02T01:05:52.768Z,96316.00
2024-02-02T01:06:52.811Z,96318.00
2024-02-02T01:07:52.700Z,96318.00
2024-02-02T01:08:52.744Z,96321.00
2024-02-02T01:09:52.705Z,96321.00
2024-02-02T01:10:52.731Z,96321.00
2024-02-02T01:11:52.698Z,96321.00
2024-02-02T01:12:52.700Z,96321.00
2024-02-02T01:13:52.666Z,96321.00
2024-02-02T01:14:52.737Z,96324.00
2024-02-02T01:15:52.776Z,96325.00
2024-02-02T01:16:52.789Z,96327.00
2024-02-02T01:17:52.944Z,96331.00
2024-02-02T01:18:53.174Z,96332.00
2024-02-02T01:19:53.010Z,96334.00
2024-02-02T01:20:53.070Z,96332.00
2024-02-02T01:21:53.068Z,96330.00
2024-02-02T01:22:53.142Z,96326.00
2024-02-02T01:23:53.206Z,96325.00
2024-02-02T01:24:53.242Z,96324.00
2024-02-02T01:25:53.300Z,96325.00
2024-02-02T01:26:53.362Z,96320.00
2024-02-02T01:27:53.408Z,96322.00
2024-02-02T01:28:53.487Z,96324.00
2024-02-02T01:29:53.568Z,96327.00
2024-02-02T01:30:53.625Z,96331.00
2024-02-02T01:31:53.701Z,96336.00
2024-02-02T01:32:53.847Z,96337.00
2024-02-02T01:33:53.839Z,96336.00
2024-02-02T01:34:53.832Z,96336.00
2024-02-02T01:35:53.918Z,96333.00
2024-02-02T01:36:53.939Z,96329.00
2024-02-02T01:37:54.026Z,96331.00
2024-02-02T01:38:54.113Z,96333.00
2024-02-02T01:39:54.148Z,96333.00
2024-02-02T01:40:54.214Z,96335.00
2024-02-02T01:41:54.343Z,96334.00
2024-02-02T01:42:54.329Z,96333.00
2024-02-02T01:43:54.503Z,96330.00
2024-02-02T01:44:54.484Z,96330.00
2024-02-02T01:45:54.491Z,96332.00
2024-02-02T01:46:54.615Z,96336.00
2024-02-02T01:47:54.775Z,96341.00
2024-02-02T01:48:54.823Z,96342.00
2024-02-02T01:49:54.830Z,96347.00
2024-02-02T01:50:54.990Z,96347.00
2024-02-02T01:51:54.892Z,96343.00
2024-02-02T01:52:54.966Z,96345.00
2024-02-02T01:53:55.072Z,96345.00
2024-02-02T01:54:55.120Z,96345.00
2024-02-02T01:55:55.175Z,96345.00
2024-02-02T01:56:55.252Z,96343.00
2024-02-02T01:57:55.230Z,96345.00
2024-02-02T01:58:55.325Z,96346.00
2024-02-02T01:59:55.548Z,96345.00
2024-02-02T02:00:55.675Z,96346.00
2024-02-02T02:01:55.558Z,96345.00
2024-02-02T02:02:55.826Z,96346.00
2024-02-02T02:03:55.716Z,96344.00
2024-02-02T02:04:55.714Z,96342.00
2024-02-02T02:05:56.094Z,96341.00
2024-02-02T02:06:55.875Z,96342.00
2024-02-02T02:07:55.913Z,96344.00
2024-02-02T02:08:56.020Z,96342.00
2024-02-02T02:09:56.041Z,96342.00
2024-02-02T02:10:56.108Z,96340.00
2024-02-02T02:11:56.162Z,96339.00
2024-02-02T02:12:56.262Z,96337.00
2024-02-02T02:13:57.000Z,96336.00
2024-02-02T02:14:56.414Z,96336.00
2024-02-02T02:15:56.423Z,96330.00
2024-02-02T02:16:56.494Z,96334.00
2024-02-02T02:17:56.583Z,96333.00
2024-02-02T02:19:02.860Z,96331.00
2024-02-02T02:19:57.686Z,96326.00
2024-02-02T02:20:56.747Z,96326.00
2024-02-02T02:21:56.597Z,96324.00
2024-02-02T02:22:56.636Z,96324.00
2024-02-02T02:23:56.727Z,96326.00
2024-02-02T02:24:56.655Z,96326.00
2024-02-02T02:25:56.631Z,96321.00
2024-02-02T02:26:56.635Z,96317.00
2024-02-02T02:27:56.631Z,96313.00
2024-02-02T02:28:56.660Z,96310.00
2024-02-02T02:29:56.760Z,96307.00
2024-02-02T02:30:56.773Z,96309.00
2024-02-02T02:31:56.964Z,96312.00
2024-02-02T02:32:57.043Z,96312.00
2024-02-02T02:33:57.140Z,96313.00
2024-02-02T02:34:57.094Z,96309.00
2024-02-02T02:35:57.214Z,96308.00
2024-02-02T02:36:57.221Z,96308.00
2024-02-02T02:37:57.293Z,96308.00
2024-02-02T02:38:57.338Z,96310.00
2024-02-02T02:39:57.423Z,96311.00
2024-02-02T02:40:57.494Z,96313.00
2024-02-02T02:41:57.587Z,96313.00
2024-02-02T02:42:57.643Z,96311.00
2024-02-02T02:43:57.678Z,96306.00
2024-02-02T02:44:57.852Z,96304.00
2024-02-02T02:45:57.848Z,96306.00
2024-02-02T02:46:57.907Z,96304.00
2024-02-02T02:47:58.621Z,96305.00
2024-02-02T02:48:58.158Z,96308.00
2024-02-02T02:49:58.112Z,96306.00
2024-02-02T02:50:58.208Z,96308.00
2024-02-02T02:51:58.245Z,96304.00
2024-02-02T02:52:58.334Z,96300.00
2024-02-02T02:53:58.422Z,96298.00
2024-02-02T02:54:58.489Z,96297.00
2024-02-02T02:55:58.566Z,96297.00
2024-02-02T02:56:58.697Z,96297.00
2024-02-02T02:57:58.685Z,96298.00
2024-02-02T02:58:58.757Z,96297.00
2024-02-02T02:59:58.871Z,96296.00
2024-02-02T03:00:58.939Z,96295.00
2024-02-02T03:01:58.979Z,96291.00
2024-02-02T03:02:59.079Z,96292.00
2024-02-02T03:03:59.124Z,96291.00
2024-02-02T03:04:59.192Z,96292.00
2024-02-02T03:05:59.401Z,96293.00
2024-02-02T03:06:59.355Z,96294.00
2024-02-02T03:07:59.382Z,96295.00
2024-02-02T03:08:59.451Z,96294.00
2024-02-02T03:09:59.510Z,96293.00
2024-02-02T03:10:59.605Z,96293.00
2024-02-02T03:11:59.680Z,96296.00
2024-02-02T03:12:59.776Z,96297.00
2024-02-02T03:13:59.789Z,96299.00
2024-02-02T03:14:59.923Z,96300.00
2024-02-02T03:15:59.943Z,96299.00
2024-02-02T03:17:00.018Z,96297.00
2024-02-02T03:18:00.218Z,96298.00
2024-02-02T03:19:00.307Z,96299.00
2024-02-02T03:20:00.313Z,96298.00
2024-02-02T03:21:00.327Z,96301.00
2024-02-02T03:22:00.397Z,96302.00
2024-02-02T03:23:00.456Z,96304.00
2024-02-02T03:24:00.539Z,96305.00
2024-02-02T03:25:00.583Z,96310.00
2024-02-02T03:26:00.608Z,96310.00
2024-02-02T03:27:00.728Z,96310.00
2024-02-02T03:28:00.952Z,96310.00
2024-02-02T03:29:00.854Z,96313.00
2024-02-02T03:30:00.997Z,96312.00
2024-02-02T03:31:00.951Z,96313.00
2024-02-02T03:32:01.034Z,96314.00
2024-02-02T03:33:01.263Z,96315.00
2024-02-02T03:34:01.277Z,96316.00
2024-02-02T03:35:01.254Z,96315.00
2024-02-02T03:36:01.393Z,96313.00
2024-02-02T03:37:01.371Z,96314.00
2024-02-02T03:38:01.471Z,96314.00
2024-02-02T03:39:01.543Z,96317.00
2024-02-02T03:40:01.597Z,96318.00
2024-02-02T03:41:01.634Z,96315.00
2024-02-02T03:42:01.736Z,96316.00
2024-02-02T03:43:01.779Z,96316.00
2024-02-02T03:44:01.886Z,96317.00
2024-02-02T03:45:02.020Z,96318.00
2024-02-02T03:46:01.987Z,96320.00
2024-02-02T03:47:02.053Z,96323.00
2024-02-02T03:48:02.202Z,96324.00
2024-02-02T03:49:02.286Z,96327.00
2024-02-02T03:50:02.414Z,96325.00
2024-02-02T03:51:02.375Z,96326.00
2024-02-02T03:52:02.507Z,96326.00
2024-02-02T03:53:02.471Z,96326.00
2024-02-02T03:54:02.600Z,96329.00
2024-02-02T03:55:02.554Z,96328.00
2024-02-02T03:56:02.631Z,96327.00
2024-02-02T03:57:02.828Z,96328.00
2024-02-02T03:58:02.798Z,96328.00
2024-02-02T03:59:02.900Z,96331.00
2024-02-02T04:00:02.962Z,96333.00
2024-02-02T04:01:03.033Z,96334.00
2024-02-02T04:02:03.093Z,96332.00
2024-02-02T04:03:03.663Z,96330.00
2024-02-02T04:04:03.288Z,96330.00
2024-02-02T04:05:03.308Z,96330.00
2024-02-02T04:06:03.330Z,96329.00
2024-02-02T04:07:03.427Z,96329.00
2024-02-02T04:08:03.530Z,96327.00
2024-02-02T04:09:03.577Z,96326.00
2024-02-02T04:10:03.552Z,96329.00
2024-02-02T04:11:03.626Z,96329.00
2024-02-02T04:12:03.756Z,96329.00
2024-02-02T04:13:04.003Z,96330.00
2024-02-02T04:14:03.798Z,96331.00
2024-02-02T04:15:03.888Z,96331.00
2024-02-02T04:16:03.953Z,96331.00
2024-02-02T04:17:03.948Z,96335.00
2024-02-02T04:18:04.670Z,96337.00
2024-02-02T04:19:04.158Z,96338.00
2024-02-02T04:20:04.254Z,96337.00
2024-02-02T04:21:04.220Z,96335.00
2024-02-02T04:22:04.248Z,96336.00
2024-02-02T04:23:04.569Z,96335.00
2024-02-02T04:24:04.358Z,96337.00
2024-02-02T04:25:04.368Z,96338.00
2024-02-02T04:26:04.381Z,96339.00
2024-02-02T04:27:04.448Z,96338.00
2024-02-02T04:28:04.526Z,96338.00
2024-02-02T04:29:04.538Z,96336.00
2024-02-02T04:30:04.715Z,96335.00
2024-02-02T04:31:04.646Z,96334.00
2024-02-02T04:32:04.744Z,96329.00
2024-02-02T04:33:05.126Z,96331.00
2024-02-02T04:34:04.889Z,96332.00
2024-02-02T04:35:12.288Z,96331.00
2024-02-02T04:36:12.271Z,96331.00
2024-02-02T04:37:12.237Z,96331.00
2024-02-02T04:38:12.247Z,96330.00
2024-02-02T04:39:12.346Z,96329.00
2024-02-02T04:40:12.301Z,96331.00
2024-02-02T04:41:12.254Z,96331.00
2024-02-02T04:42:12.308Z,96333.00
2024-02-02T04:43:12.290Z,96335.00
2024-02-02T04:44:12.269Z,96333.00
2024-02-02T04:45:12.262Z,96336.00
2024-02-02T04:46:12.421Z,96334.00
2024-02-02T04:47:12.296Z,96335.00
2024-02-02T04:48:12.486Z,96331.00
2024-02-02T04:49:12.447Z,96331.00
2024-02-02T04:50:12.240Z,96329.00
2024-02-02T04:51:12.321Z,96329.00
2024-02-02T04:52:12.234Z,96327.00
2024-02-02T04:53:12.256Z,96330.00
2024-02-02T04:54:12.318Z,96327.00
2024-02-02T04:55:12.258Z,96328.00
2024-02-02T04:56:12.251Z,96330.00
2024-02-02T04:57:12.323Z,96329.00
2024-02-02T04:58:12.347Z,96330.00
2024-02-02T04:59:12.369Z,96328.00
2024-02-02T05:00:12.502Z,96328.00
2024-02-02T05:01:12.555Z,96325.00
2024-02-02T05:02:12.688Z,96322.00
2024-02-02T05:03:12.970Z,96319.00
2024-02-02T05:04:12.754Z,96320.00
2024-02-02T05:05:12.756Z,96321.00
2024-02-02T05:06:12.850Z,96325.00
2024-02-02T05:07:12.970Z,96325.00
2024-02-02T05:08:13.453Z,96329.00
2024-02-02T05:09:13.026Z,96328.00
2024-02-02T05:10:13.072Z,96331.00
2024-02-02T05:11:14.020Z,96329.00
2024-02-02T05:12:13.251Z,96328.00
2024-02-02T05:13:16.384Z,96327.00
2024-02-02T05:14:13.285Z,96330.00
2024-02-02T05:15:13.432Z,96329.00
2024-02-02T05:16:15.612Z,96329.00
2024-02-02T05:17:13.351Z,96330.00
2024-02-02T05:18:14.133Z,96331.00
2024-02-02T05:19:13.358Z,96334.00
2024-02-02T05:20:13.244Z,96334.00
2024-02-02T05:21:13.311Z,96333.00
2024-02-02T05:22:13.349Z,96336.00
2024-02-02T05:23:13.330Z,96336.00
2024-02-02T05:24:26.243Z,96343.00
2024-02-02T05:25:15.592Z,96346.00
2024-02-02T05:26:13.371Z,96346.00
2024-02-02T05:27:13.580Z,96349.00
2024-02-02T05:28:13.532Z,96348.00
2024-02-02T05:29:13.526Z,96348.00
2024-02-02T05:30:13.691Z,96348.00
2024-02-02T05:31:13.736Z,96348.00
2024-02-02T05:32:13.773Z,96350.00
2024-02-02T05:33:13.947Z,96351.00
2024-02-02T05:34:14.144Z,96351.00
2024-02-02T05:35:13.970Z,96352.00
2024-02-02T05:36:13.992Z,96355.00
2024-02-02T05:37:13.995Z,96357.00
2024-02-02T05:38:14.111Z,96361.00
2024-02-02T05:39:14.126Z,96360.00
2024-02-02T05:40:14.190Z,96365.00
2024-02-02T05:41:14.271Z,96364.00
2024-02-02T05:42:14.352Z,96368.00
2024-02-02T05:43:14.339Z,96372.00
2024-02-02T05:44:14.455Z,96376.00
2024-02-02T05:45:14.553Z,96376.00
2024-02-02T05:46:14.545Z,96379.00
2024-02-02T05:47:14.640Z,96378.00
2024-02-02T05:48:14.999Z,96378.00
2024-02-02T05:49:14.737Z,96379.00
2024-02-02T05:50:14.759Z,96381.00
2024-02-02T05:51:14.940Z,96383.00
2024-02-02T05:52:14.817Z,96384.00
2024-02-02T05:53:15.439Z,96387.00
2024-02-02T05:54:14.945Z,96386.00
2024-02-02T05:55:14.935Z,96389.00
2024-02-02T05:56:15.121Z,96391.00
2024-02-02T05:57:15.170Z,96392.00
2024-02-02T05:58:15.479Z,96392.00
2024-02-02T05:59:15.156Z,96393.00
2024-02-02T06:00:15.282Z,96394.00
2024-02-02T06:01:15.340Z,96397.00
2024-02-02T06:02:15.355Z,96399.00
2024-02-02T06:03:15.948Z,96400.00
2024-02-02T06:04:15.546Z,96399.00
2024-02-02T06:05:15.582Z,96396.00
2024-02-02T06:06:15.682Z,96396.00
2024-02-02T06:07:15.763Z,96395.00
2024-02-02T06:08:16.056Z,96396.00
2024-02-02T06:09:16.452Z,96397.00
2024-02-02T06:10:15.820Z,96399.00
2024-02-02T06:11:15.859Z,96402.00
2024-02-02T06:12:15.959Z,96407.00
2024-02-02T06:13:15.959Z,96408.00
2024-02-02T06:14:16.105Z,96411.00
2024-02-02T06:15:16.231Z,96413.00
2024-02-02T06:16:16.188Z,96415.00
2024-02-02T06:17:16.222Z,96418.00
2024-02-02T06:18:16.590Z,96418.00
2024-02-02T06:19:16.499Z,96418.00
2024-02-02T06:20:16.483Z,96425.00
2024-02-02T06:21:16.670Z,96428.00
2024-02-02T06:22:16.627Z,96433.00
2024-02-02T06:23:17.100Z,96435.00
2024-02-02T06:24:16.694Z,96438.00
2024-02-02T06:25:16.679Z,96437.00
2024-02-02T06:26:16.685Z,96436.00
2024-02-02T06:27:16.987Z,96438.00
2024-02-02T06:28:16.806Z,96437.00
2024-02-02T06:29:16.905Z,96441.00
2024-02-02T06:30:16.954Z,96441.00
2024-02-02T06:31:17.013Z,96445.00
2024-02-02T06:32:17.009Z,96454.00
2024-02-02T06:33:17.622Z,96451.00
2024-02-02T06:34:17.289Z,96450.00
2024-02-02T06:35:17.111Z,96457.00
2024-02-02T06:36:17.189Z,96462.00
2024-02-02T06:37:17.177Z,96457.00
2024-02-02T06:38:17.168Z,96462.00
2024-02-02T06:39:17.206Z,96460.00
2024-02-02T06:40:17.191Z,96460.00
2024-02-02T06:41:17.265Z,96459.00
2024-02-02T06:42:17.230Z,96451.00
2024-02-02T06:43:17.612Z,96453.00
2024-02-02T06:44:17.284Z,96457.00
2024-02-02T06:45:17.510Z,96462.00
2024-02-02T06:46:17.324Z,96461.00
2024-02-02T06:47:17.324Z,96461.00
2024-02-02T06:48:17.500Z,96459.00
2024-02-02T06:49:18.560Z,96453.00
2024-02-02T06:50:18.214Z,96455.00
2024-02-02T06:51:17.517Z,96461.00
2024-02-02T06:52:17.538Z,96459.00
2024-02-02T06:53:18.968Z,96459.00
2024-02-02T06:54:17.464Z,96461.00
2024-02-02T06:55:17.583Z,96462.00
2024-02-02T06:56:17.548Z,96461.00
2024-02-02T06:57:17.591Z,96461.00
2024-02-02T06:58:17.686Z,96459.00
2024-02-02T06:59:17.718Z,96461.00
2024-02-02T07:00:17.877Z,96459.00
2024-02-02T07:01:19.267Z,96463.00
2024-02-02T07:02:18.353Z,96459.00
2024-02-02T07:03:18.145Z,96456.00
2024-02-02T07:04:18.179Z,96457.00
2024-02-02T07:05:18.028Z,96457.00
2024-02-02T07:06:18.243Z,96459.00
2024-02-02T07:07:18.216Z,96464.00
2024-02-02T07:08:18.362Z,96464.00
2024-02-02T07:09:18.306Z,96464.00
2024-02-02T07:10:18.285Z,96464.00
2024-02-02T07:11:18.337Z,96463.00
2024-02-02T07:12:18.323Z,96461.00
2024-02-02T07:13:18.392Z,96458.00
2024-02-02T07:14:18.428Z,96457.00
2024-02-02T07:15:18.476Z,96456.00
2024-02-02T07:16:18.371Z,96455.00
2024-02-02T07:17:18.430Z,96458.00
2024-02-02T07:18:18.528Z,96462.00
2024-02-02T07:19:18.566Z,96464.00
2024-02-02T07:20:18.457Z,96466.00
2024-02-02T07:21:18.569Z,96466.00
2024-02-02T07:22:18.493Z,96462.00
2024-02-02T07:23:18.582Z,96464.00
2024-02-02T07:24:18.663Z,96464.00
2024-02-02T07:25:18.668Z,96465.00
2024-02-02T07:26:18.701Z,96464.00
2024-02-02T07:27:41.245Z,96463.00
2024-02-02T07:28:18.793Z,96468.00
2024-02-02T07:29:21.492Z,96469.00
2024-02-02T07:30:18.779Z,96472.00
2024-02-02T07:31:18.781Z,96472.00
2024-02-02T07:32:18.786Z,96472.00
2024-02-02T07:33:18.946Z,96472.00
2024-02-02T07:34:18.856Z,96469.00
2024-02-02T07:35:18.767Z,96470.00
2024-02-02T07:36:18.820Z,96470.00
2024-02-02T07:37:18.845Z,96471.00
2024-02-02T07:38:18.786Z,96473.00
2024-02-02T07:39:18.796Z,96474.00
2024-02-02T07:40:18.774Z,96474.00
2024-02-02T07:41:18.786Z,96475.00
2024-02-02T07:42:18.782Z,96473.00
2024-02-02T07:43:18.866Z,96475.00
2024-02-02T07:44:18.771Z,96473.00
2024-02-02T07:45:18.812Z,96475.00
2024-02-02T07:46:18.837Z,96476.00
2024-02-02T07:47:18.795Z,96479.00
2024-02-02T07:48:19.001Z,96479.00
2024-02-02T07:49:18.883Z,96480.00
2024-02-02T07:50:18.818Z,96480.00
2024-02-02T07:51:18.997Z,96480.00
2024-02-02T07:52:18.904Z,96482.00
2024-02-02T07:53:18.890Z,96481.00
2024-02-02T07:54:18.941Z,96483.00
2024-02-02T07:55:18.816Z,96484.00
2024-02-02T07:56:18.841Z,96485.00
2024-02-02T07:57:18.917Z,96483.00
2024-02-02T07:58:18.822Z,96481.00
2024-02-02T07:59:18.806Z,96481.00
2024-02-02T08:00:19.004Z,96477.00
2024-02-02T08:01:19.589Z,96477.00
2024-02-02T08:02:18.831Z,96480.00
2024-02-02T08:03:18.881Z,96484.00
2024-02-02T08:04:18.947Z,96489.00
2024-02-02T08:05:18.893Z,96486.00
2024-02-02T08:06:18.835Z,96490.00
2024-02-02T08:07:18.984Z,96486.00
2024-02-02T08:08:18.853Z,96487.00
2024-02-02T08:09:19.610Z,96488.00
2024-02-02T08:10:18.842Z,96491.00
2024-02-02T08:11:18.846Z,96497.00
2024-02-02T08:12:18.901Z,96500.00
2024-02-02T08:13:18.933Z,96504.00
2024-02-02T08:14:18.838Z,96505.00
2024-02-02T08:15:18.855Z,96505.00
2024-02-02T08:16:18.881Z,96507.00
2024-02-02T08:17:18.832Z,96508.00
2024-02-02T08:18:18.943Z,96508.00
2024-02-02T08:19:18.993Z,96506.00
2024-02-02T08:20:18.959Z,96504.00
2024-02-02T08:21:19.017Z,96503.00
2024-02-02T08:22:19.111Z,96505.00
2024-02-02T08:23:19.479Z,96505.00
2024-02-02T08:24:19.271Z,96508.00
2024-02-02T08:25:19.285Z,96510.00
2024-02-02T08:26:19.312Z,96510.00
2024-02-02T08:27:19.432Z,96508.00
2024-02-02T08:28:19.512Z,96508.00
2024-02-02T08:29:19.515Z,96509.00
2024-02-02T08:30:19.635Z,96509.00
2024-02-02T08:31:19.630Z,96509.00
2024-02-02T08:32:19.799Z,96507.00
2024-02-02T08:33:19.903Z,96508.00
2024-02-02T08:34:19.993Z,96507.00
2024-02-02T08:35:19.909Z,96507.00
2024-02-02T08:36:20.118Z,96509.00
2024-02-02T08:37:20.068Z,96511.00
2024-02-02T08:38:20.078Z,96512.00
2024-02-02T08:39:20.193Z,96512.00
2024-02-02T08:40:20.186Z,96509.00
2024-02-02T08:41:20.275Z,96509.00
2024-02-02T08:42:20.367Z,96510.00
2024-02-02T08:43:20.443Z,96513.00
2024-02-02T08:44:20.425Z,96515.00
2024-02-02T08:45:20.544Z,96514.00
2024-02-02T08:46:20.690Z,96512.00
2024-02-02T08:47:20.655Z,96512.00
2024-02-02T08:48:20.764Z,96506.00
2024-02-02T08:49:20.800Z,96503.00
2024-02-02T08:50:20.720Z,96503.00
2024-02-02T08:51:20.776Z,96505.00
2024-02-02T08:52:20.800Z,96505.00
2024-02-02T08:53:20.900Z,96505.00
2024-02-02T08:54:20.956Z,96504.00
2024-02-02T08:55:20.955Z,96503.00
2024-02-02T08:56:21.084Z,96501.00
2024-02-02T08:57:21.664Z,96502.00
2024-02-02T08:58:21.165Z,96502.00
2024-02-02T08:59:21.244Z,96500.00
2024-02-02T09:00:21.362Z,96502.00
2024-02-02T09:01:21.431Z,96499.00
2024-02-02T09:02:21.398Z,96496.00
2024-02-02T09:03:21.607Z,96490.00
2024-02-02T09:04:21.684Z,96488.00
2024-02-02T09:05:21.640Z,96485.00
2024-02-02T09:06:21.722Z,96482.00
2024-02-02T09:07:21.801Z,96482.00
2024-02-02T09:08:21.817Z,96482.00
2024-02-02T09:09:21.960Z,96480.00
2024-02-02T09:10:21.997Z,96480.00
2024-02-02T09:11:21.916Z,96482.00
2024-02-02T09:12:21.976Z,96480.00
2024-02-02T09:13:21.988Z,96486.00
2024-02-02T09:14:23.192Z,96485.00
2024-02-02T09:15:22.027Z,96486.00
2024-02-02T09:16:21.985Z,96483.00
2024-02-02T09:17:22.082Z,96482.00
2024-02-02T09:18:22.053Z,96479.00
2024-02-02T09:19:22.038Z,96478.00
2024-02-02T09:20:22.040Z,96475.00
2024-02-02T09:21:22.076Z,96477.00
2024-02-02T09:22:22.055Z,96475.00
2024-02-02T09:23:22.055Z,96473.00
2024-02-02T09:24:22.075Z,96473.00
2024-02-02T09:25:22.037Z,96473.00
2024-02-02T09:26:22.088Z,96472.00
2024-02-02T09:27:22.208Z,96473.00
2024-02-02T09:28:22.117Z,96472.00
2024-02-02T09:29:22.114Z,96470.00
2024-02-02T09:30:22.320Z,96473.00
2024-02-02T09:31:22.168Z,96470.00
2024-02-02T09:32:22.322Z,96467.00
2024-02-02T09:33:22.292Z,96462.00
2024-02-02T09:34:22.309Z,96459.00
2024-02-02T09:35:22.280Z,96458.00
2024-02-02T09:36:22.393Z,96458.00
2024-02-02T09:37:22.343Z,96460.00
2024-02-02T09:38:22.390Z,96461.00
2024-02-02T09:39:22.473Z,96461.00
2024-02-02T09:40:22.402Z,96457.00
2024-02-02T09:41:22.514Z,96454.00
2024-02-02T09:42:22.595Z,96456.00
2024-02-02T09:43:22.578Z,96456.00
2024-02-02T09:44:22.596Z,96456.00
2024-02-02T09:45:22.695Z,96458.00
2024-02-02T09:46:22.641Z,96459.00
2024-02-02T09:47:22.689Z,96460.00
2024-02-02T09:48:22.867Z,96464.00
2024-02-02T09:49:22.850Z,96464.00
2024-02-02T09:50:22.849Z,96466.00
2024-02-02T09:51:22.790Z,96464.00
2024-02-02T09:52:22.733Z,96464.00
2024-02-02T09:53:22.775Z,96459.00
2024-02-02T09:54:22.871Z,96459.00
2024-02-02T09:55:22.993Z,96457.00
2024-02-02T09:56:24.774Z,96461.00
2024-02-02T09:57:22.953Z,96462.00
2024-02-02T09:58:23.045Z,96463.00
2024-02-02T09:59:22.895Z,96463.00
2024-02-02T10:00:23.484Z,96457.00
2024-02-02T10:01:22.895Z,96459.00
2024-02-02T10:02:22.896Z,96457.00
2024-02-02T10:03:22.864Z,96457.00
2024-02-02T10:04:22.898Z,96458.00
2024-02-02T10:05:22.902Z,96461.00
2024-02-02T10:06:22.932Z,96462.00
2024-02-02T10:07:23.012Z,96462.00
2024-02-02T10:08:22.909Z,96461.00
2024-02-02T10:09:22.911Z,96461.00
2024-02-02T10:10:22.870Z,96460.00
2024-02-02T10:11:23.479Z,96460.00
2024-02-02T10:12:22.883Z,96463.00
2024-02-02T10:13:22.881Z,96463.00
2024-02-02T10:14:22.898Z,96463.00
2024-02-02T10:15:22.944Z,96459.00
2024-02-02T10:16:22.888Z,96457.00
2024-02-02T10:17:22.914Z,96459.00
2024-02-02T10:18:22.941Z,96462.00
2024-02-02T10:19:23.028Z,96466.00
2024-02-02T10:20:22.896Z,96466.00
2024-02-02T10:21:22.916Z,96466.00
2024-02-02T10:22:22.886Z,96466.00
2024-02-02T10:23:22.870Z,96468.00
2024-02-02T10:24:22.952Z,96470.00
2024-02-02T10:25:22.895Z,96474.00
2024-02-02T10:26:22.887Z,96475.00
2024-02-02T10:27:22.919Z,96473.00
2024-02-02T10:28:22.897Z,96473.00
2024-02-02T10:29:22.900Z,96471.00
2024-02-02T10:30:22.950Z,96470.00
2024-02-02T10:31:22.930Z,96473.00
2024-02-02T10:32:22.885Z,96471.00
2024-02-02T10:33:23.085Z,96468.00
2024-02-02T10:34:23.121Z,96466.00
2024-02-02T10:35:22.913Z,96466.00
2024-02-02T10:36:22.909Z,96466.00
2024-02-02T10:37:22.894Z,96465.00
2024-02-02T10:38:22.926Z,96465.00
2024-02-02T10:39:22.929Z,96465.00
2024-02-02T10:40:22.923Z,96465.00
2024-02-02T10:41:22.917Z,96461.00
2024-02-02T10:42:22.939Z,96462.00
2024-02-02T10:43:22.933Z,96459.00
2024-02-02T10:44:22.897Z,96456.00
2024-02-02T10:45:22.923Z,96454.00
2024-02-02T10:46:22.908Z,96457.00
2024-02-02T10:47:23.783Z,96460.00
2024-02-02T10:48:23.012Z,96461.00
2024-02-02T10:49:23.067Z,96459.00
2024-02-02T10:50:22.913Z,96458.00
2024-02-02T10:51:22.948Z,96456.00
2024-02-02T10:52:22.938Z,96451.00
2024-02-02T10:53:22.942Z,96448.00
2024-02-02T10:54:22.944Z,96445.00
2024-02-02T10:55:22.930Z,96442.00
2024-02-02T10:56:22.889Z,96437.00
2024-02-02T10:57:22.966Z,96436.00
2024-02-02T10:58:22.941Z,96435.00
2024-02-02T10:59:22.902Z,96436.00
2024-02-02T11:00:25.019Z,96433.00
2024-02-02T11:01:23.254Z,96433.00
2024-02-02T11:02:23.191Z,96430.00
2024-02-02T11:03:23.351Z,96424.00
2024-02-02T11:04:23.291Z,96419.00
2024-02-02T11:05:23.191Z,96411.00
2024-02-02T11:06:23.294Z,96410.00
2024-02-02T11:07:23.261Z,96415.00
2024-02-02T11:08:23.204Z,96411.00
2024-02-02T11:09:23.264Z,96412.00
2024-02-02T11:10:23.239Z,96407.00
2024-02-02T11:11:23.301Z,96404.00
2024-02-02T11:12:23.308Z,96401.00
2024-02-02T11:13:23.304Z,96400.00
2024-02-02T11:14:23.420Z,96396.00
2024-02-02T11:15:23.353Z,96397.00
2024-02-02T11:16:23.369Z,96390.00
2024-02-02T11:17:23.998Z,96387.00
2024-02-02T11:18:23.482Z,96386.00
2024-02-02T11:19:23.442Z,96390.00
2024-02-02T11:20:23.404Z,96391.00
2024-02-02T11:21:23.408Z,96391.00
2024-02-02T11:22:23.400Z,96385.00
2024-02-02T11:23:23.472Z,96379.00
2024-02-02T11:24:23.506Z,96373.00
2024-02-02T11:25:23.560Z,96365.00
2024-02-02T11:26:24.535Z,96364.00
2024-02-02T11:27:23.519Z,96364.00
2024-02-02T11:28:23.513Z,96367.00
2024-02-02T11:29:23.523Z,96372.00
2024-02-02T11:30:23.521Z,96374.00
2024-02-02T11:31:23.536Z,96373.00
2024-02-02T11:32:23.501Z,96368.00
2024-02-02T11:33:23.753Z,96366.00
2024-02-02T11:34:23.570Z,96365.00
2024-02-02T11:35:23.552Z,96364.00
2024-02-02T11:36:23.533Z,96363.00
2024-02-02T11:37:23.519Z,96365.00
2024-02-02T11:38:23.514Z,96370.00
2024-02-02T11:39:23.604Z,96373.00
2024-02-02T11:40:23.546Z,96376.00
2024-02-02T11:41:23.553Z,96375.00
2024-02-02T11:42:23.576Z,96374.00
2024-02-02T11:43:24.073Z,96379.00
2024-02-02T11:44:23.582Z,96379.00
2024-02-02T11:45:23.625Z,96381.00